createdAt,value
2022-11-10T00:01:09.433Z,91.51
2022-11-10T00:03:38.351Z,91.00
2022-11-10T00:06:06.786Z,90.88
2022-11-10T00:08:34.026Z,91.11
2022-11-10T00:11:07.762Z,90.38
2022-11-10T00:13:57.162Z,90.39
2022-11-10T00:16:42.999Z,90.04
2022-11-10T00:19:10.132Z,90.45
2022-11-10T00:21:38.115Z,89.64
2022-11-10T00:24:05.496Z,90.88
2022-11-10T00:26:34.934Z,89.59
2022-11-10T00:29:02.024Z,90.56
2022-11-10T00:31:29.101Z,90.53
2022-11-10T00:33:56.588Z,91.26
2022-11-10T00:36:23.922Z,89.96
2022-11-10T00:38:52.047Z,90.24
2022-11-10T00:41:18.937Z,89.18
2022-11-10T00:43:46.097Z,90.31
2022-11-10T00:46:13.208Z,89.64
2022-11-10T00:48:40.439Z,89.45
2022-11-10T00:51:10.128Z,89.52
2022-11-10T00:53:37.025Z,89.69
2022-11-10T00:56:04.087Z,90.48
2022-11-10T00:58:31.023Z,90.33
2022-11-10T01:01:05.705Z,90.95
2022-11-10T01:03:33.420Z,89.84
2022-11-10T01:06:12.323Z,89.50
2022-11-10T01:08:40.575Z,89.91
2022-11-10T01:11:19.101Z,89.84
2022-11-10T01:13:46.665Z,90.66
2022-11-10T01:16:25.059Z,90.15
2022-11-10T01:18:54.707Z,90.33
2022-11-10T01:21:22.659Z,90.09
2022-11-10T01:23:50.143Z,89.90
2022-11-10T01:26:17.882Z,90.31
2022-11-10T01:28:45.861Z,90.38
2022-11-10T01:31:13.856Z,89.91
2022-11-10T01:33:41.192Z,89.37
2022-11-10T01:36:09.582Z,89.56
2022-11-10T01:38:38.994Z,89.88
2022-11-10T01:41:08.289Z,90.66
2022-11-10T01:43:35.527Z,90.74
2022-11-10T01:46:02.526Z,90.88
2022-11-10T01:48:33.258Z,91.03
2022-11-10T01:51:09.573Z,90.76
2022-11-10T01:53:43.509Z,90.43
2022-11-10T01:56:12.691Z,90.26
2022-11-10T01:58:45.159Z,91.38
2022-11-10T02:01:12.258Z,90.63
2022-11-10T02:03:50.206Z,91.14
2022-11-10T02:06:17.834Z,90.05
2022-11-10T02:08:45.923Z,89.99
2022-11-10T02:11:16.462Z,89.70
2022-11-10T02:13:43.648Z,90.24
2022-11-10T02:16:11.322Z,90.08
2022-11-10T02:18:38.577Z,89.73
2022-11-10T02:21:07.505Z,90.26
2022-11-10T02:23:39.433Z,90.76
2022-11-10T02:26:07.763Z,91.01
2022-11-10T02:28:37.517Z,89.83
2022-11-10T02:31:05.971Z,90.21
2022-11-10T02:33:32.908Z,90.18
2022-11-10T02:35:59.763Z,90.13
2022-11-10T02:38:26.708Z,89.70
2022-11-10T02:40:54.652Z,90.14
2022-11-10T02:43:21.940Z,89.37
2022-11-10T02:45:49.197Z,89.68
2022-11-10T02:48:17.124Z,89.18
2022-11-10T02:50:44.639Z,89.83
2022-11-10T02:53:11.592Z,89.98
2022-11-10T02:55:38.727Z,90.14
2022-11-10T02:58:06.225Z,89.98
2022-11-10T03:00:33.278Z,90.17
2022-11-10T03:03:05.312Z,89.42
2022-11-10T03:05:32.888Z,89.89
2022-11-10T03:08:02.054Z,89.62
2022-11-10T03:10:30.564Z,89.29
2022-11-10T03:13:00.390Z,89.92
2022-11-10T03:15:28.824Z,90.08
2022-11-10T03:17:56.620Z,89.86
2022-11-10T03:20:23.679Z,89.29
2022-11-10T03:22:50.727Z,89.57
2022-11-10T03:25:17.904Z,90.22
2022-11-10T03:27:45.566Z,89.83
2022-11-10T03:30:12.845Z,89.15
2022-11-10T03:32:39.782Z,90.37
2022-11-10T03:35:07.059Z,90.45
2022-11-10T03:37:33.948Z,89.21
2022-11-10T03:40:00.972Z,90.11
2022-11-10T03:42:27.887Z,89.29
2022-11-10T03:44:54.855Z,89.47
2022-11-10T03:47:21.971Z,90.23
2022-11-10T03:49:49.135Z,89.61
2022-11-10T03:52:16.713Z,89.82
2022-11-10T03:54:43.683Z,88.69
2022-11-10T03:57:11.275Z,88.58
2022-11-10T03:59:38.189Z,89.58
2022-11-10T04:02:05.252Z,89.85
2022-11-10T04:04:50.490Z,89.78
2022-11-10T04:07:36.246Z,90.17
2022-11-10T04:10:04.015Z,90.07
2022-11-10T04:12:49.685Z,89.18
2022-11-10T04:15:35.386Z,88.71
2022-11-10T04:18:20.930Z,90.18
2022-11-10T04:20:48.908Z,89.70
2022-11-10T04:23:28.763Z,89.01
2022-11-10T04:26:17.168Z,89.35
2022-11-10T04:28:45.818Z,89.93
2022-11-10T04:31:14.024Z,90.11
2022-11-10T04:33:42.306Z,90.17
2022-11-10T04:36:11.533Z,89.48
2022-11-10T04:38:39.201Z,89.82
2022-11-10T04:41:06.768Z,90.25
2022-11-10T04:43:34.480Z,89.83
2022-11-10T04:46:02.178Z,89.89
2022-11-10T04:48:30.780Z,89.93
2022-11-10T04:50:58.126Z,89.71
2022-11-10T04:53:25.604Z,90.83
2022-11-10T04:55:53.998Z,91.00
2022-11-10T04:58:21.103Z,89.87
2022-11-10T05:00:48.362Z,90.07
2022-11-10T05:03:15.717Z,89.91
2022-11-10T05:05:43.002Z,90.20
2022-11-10T05:08:10.547Z,90.04
2022-11-10T05:10:38.773Z,90.88
2022-11-10T05:13:06.387Z,89.35
2022-11-10T05:15:33.813Z,90.12
2022-11-10T05:18:01.484Z,90.31
2022-11-10T05:20:28.782Z,90.61
2022-11-10T05:23:14.052Z,89.68
2022-11-10T05:25:42.705Z,90.71
2022-11-10T05:28:11.868Z,90.79
2022-11-10T05:30:39.944Z,90.08
2022-11-10T05:33:06.752Z,90.18
2022-11-10T05:35:34.165Z,90.32
2022-11-10T05:38:01.393Z,90.26
2022-11-10T05:40:28.726Z,90.05
2022-11-10T05:42:55.829Z,90.52
2022-11-10T05:45:25.026Z,90.32
2022-11-10T05:47:52.674Z,90.38
2022-11-10T05:50:22.059Z,90.69
2022-11-10T05:52:51.510Z,90.83
2022-11-10T05:55:20.861Z,90.08
2022-11-10T05:57:49.461Z,90.83
2022-11-10T06:00:18.914Z,90.21
2022-11-10T06:02:45.891Z,90.86
2022-11-10T06:05:13.200Z,89.84
2022-11-10T06:07:40.119Z,89.75
2022-11-10T06:10:07.601Z,90.05
2022-11-10T06:12:34.637Z,90.77
2022-11-10T06:15:03.025Z,90.62
2022-11-10T06:17:30.082Z,90.48
2022-11-10T06:19:56.953Z,90.10
2022-11-10T06:22:23.871Z,90.57
2022-11-10T06:24:50.742Z,90.83
2022-11-10T06:27:17.769Z,91.43
2022-11-10T06:29:44.634Z,91.80
2022-11-10T06:32:12.116Z,92.30
2022-11-10T06:34:39.082Z,92.86
2022-11-10T06:37:06.152Z,94.01
2022-11-10T06:39:33.623Z,95.03
2022-11-10T06:42:00.602Z,94.89
2022-11-10T06:44:27.636Z,96.49
2022-11-10T06:46:54.538Z,97.60
2022-11-10T06:49:21.491Z,98.08
2022-11-10T06:51:48.469Z,98.45
2022-11-10T06:54:15.402Z,100.00
2022-11-10T06:56:42.388Z,100.00
2022-11-10T06:59:09.357Z,100.00
2022-11-10T07:01:36.496Z,100.00
2022-11-10T07:04:19.392Z,100.00
2022-11-10T07:06:48.104Z,100.00
2022-11-10T07:09:15.618Z,100.00
2022-11-10T07:11:43.197Z,100.00
2022-11-10T07:14:10.420Z,100.00
2022-11-10T07:16:37.646Z,100.00
2022-11-10T07:19:04.603Z,100.00
2022-11-10T07:21:32.107Z,100.00
2022-11-10T07:23:58.990Z,100.00
2022-11-10T07:26:26.070Z,100.00
2022-11-10T07:28:53.161Z,100.00
2022-11-10T07:31:20.106Z,99.63
2022-11-10T07:33:53.357Z,98.70
2022-11-10T07:36:21.988Z,97.07
2022-11-10T07:38:50.438Z,96.38
2022-11-10T07:41:17.414Z,94.20
2022-11-10T07:43:44.360Z,92.52
2022-11-10T07:46:11.690Z,91.66
2022-11-10T07:48:38.639Z,90.20
2022-11-10T07:51:05.901Z,89.93
2022-11-10T07:53:32.895Z,88.85
2022-11-10T07:55:59.893Z,87.91
2022-11-10T07:58:26.852Z,86.74
2022-11-10T08:00:54.051Z,87.09
2022-11-10T08:03:22.689Z,86.93
2022-11-10T08:05:50.316Z,85.17
2022-11-10T08:08:17.916Z,85.54
2022-11-10T08:10:45.112Z,84.70
2022-11-10T08:13:13.396Z,84.06
2022-11-10T08:15:41.325Z,82.59
2022-11-10T08:18:23.583Z,83.41
2022-11-10T08:20:50.573Z,81.62
2022-11-10T08:23:18.230Z,80.52
2022-11-10T08:25:48.131Z,80.19
2022-11-10T08:28:17.464Z,78.94
2022-11-10T08:30:46.137Z,78.18
2022-11-10T08:33:14.884Z,77.53
2022-11-10T08:35:44.689Z,78.03
2022-11-10T08:38:14.251Z,76.85
2022-11-10T08:40:41.746Z,76.32
2022-11-10T08:43:09.872Z,75.56
2022-11-10T08:45:38.500Z,74.94
2022-11-10T08:48:11.098Z,74.86
2022-11-10T08:50:38.182Z,73.30
2022-11-10T08:53:07.228Z,72.92
2022-11-10T08:55:34.653Z,73.20
2022-11-10T08:58:03.668Z,72.94
2022-11-10T09:00:32.527Z,72.00
2022-11-10T09:03:24.856Z,70.80
2022-11-10T09:05:58.014Z,70.59
2022-11-10T09:08:25.967Z,69.47
2022-11-10T09:10:53.101Z,69.42
2022-11-10T09:13:29.042Z,68.53
2022-11-10T09:16:04.826Z,68.60
2022-11-10T09:18:32.433Z,67.80
2022-11-10T09:20:59.650Z,67.02
2022-11-10T09:23:27.421Z,66.48
2022-11-10T09:25:55.795Z,65.68
2022-11-10T09:28:23.801Z,64.99
2022-11-10T09:30:52.264Z,64.27
2022-11-10T09:33:19.849Z,64.46
2022-11-10T09:35:47.406Z,63.81
2022-11-10T09:38:14.739Z,63.69
2022-11-10T09:41:03.848Z,61.48
2022-11-10T09:43:38.044Z,62.86
2022-11-10T09:46:16.620Z,61.51
2022-11-10T09:48:50.977Z,61.60
2022-11-10T09:51:20.127Z,60.20
2022-11-10T09:54:21.722Z,60.39
2022-11-10T09:56:50.888Z,60.35
2022-11-10T09:59:26.935Z,59.24
2022-11-10T10:02:05.697Z,58.07
2022-11-10T10:04:35.443Z,57.76
2022-11-10T10:07:12.236Z,57.82
2022-11-10T10:09:39.165Z,58.00
2022-11-10T10:12:47.122Z,57.75
2022-11-10T10:15:16.850Z,56.81
2022-11-10T10:17:58.148Z,56.52
2022-11-10T10:20:38.818Z,56.57
2022-11-10T10:23:14.875Z,56.29
2022-11-10T10:25:43.603Z,56.16
2022-11-10T10:28:23.960Z,55.74
2022-11-10T10:30:51.344Z,54.54
2022-11-10T10:33:23.787Z,54.39
2022-11-10T10:35:51.343Z,54.90
2022-11-10T10:38:31.326Z,54.05
2022-11-10T10:41:04.262Z,54.25
2022-11-10T10:43:31.272Z,54.28
2022-11-10T10:46:12.735Z,53.69
2022-11-10T10:48:39.897Z,53.45
2022-11-10T10:51:07.103Z,53.16
2022-11-10T10:53:46.736Z,52.64
2022-11-10T10:56:31.584Z,52.29
2022-11-10T10:59:04.295Z,52.96
2022-11-10T11:01:33.858Z,52.71
2022-11-10T11:04:06.183Z,52.05
2022-11-10T11:06:35.191Z,52.39
2022-11-10T11:09:16.756Z,51.61
2022-11-10T11:11:46.476Z,51.07
2022-11-10T11:14:29.767Z,51.44
2022-11-10T11:16:59.393Z,51.06
2022-11-10T11:19:33.154Z,50.51
2022-11-10T11:22:42.059Z,50.99
2022-11-10T11:25:35.201Z,50.48
2022-11-10T11:28:53.274Z,50.31
2022-11-10T11:31:48.761Z,50.98
2022-11-10T11:34:26.731Z,49.20
2022-11-10T11:37:19.458Z,48.94
2022-11-10T11:40:01.977Z,50.89
2022-11-10T11:42:50.551Z,50.79
2022-11-10T11:45:26.297Z,49.95
2022-11-10T11:48:29.547Z,50.82
2022-11-10T11:51:28.579Z,48.23
2022-11-10T11:54:18.319Z,47.40
2022-11-10T11:56:48.110Z,48.51
2022-11-10T11:59:17.776Z,48.80
2022-11-10T12:02:09.751Z,49.37
2022-11-10T12:04:39.957Z,48.41
2022-11-10T12:07:06.889Z,47.51
2022-11-10T12:09:48.282Z,46.57
2022-11-10T12:12:18.214Z,47.35
2022-11-10T12:15:00.068Z,47.18
2022-11-10T12:17:33.044Z,47.16
2022-11-10T12:20:21.002Z,47.84
2022-11-10T12:23:05.933Z,48.17
2022-11-10T12:26:12.976Z,48.55
2022-11-10T12:28:45.973Z,49.10
2022-11-10T12:31:18.649Z,47.76
2022-11-10T12:33:51.550Z,48.55
2022-11-10T12:36:22.419Z,48.67
2022-11-10T12:39:17.524Z,48.36
2022-11-10T12:41:49.949Z,48.38
2022-11-10T12:44:37.580Z,48.34
2022-11-10T12:47:10.086Z,48.83
2022-11-10T12:49:41.826Z,49.86
2022-11-10T12:52:22.552Z,49.51
2022-11-10T12:54:49.838Z,49.87
2022-11-10T12:57:27.581Z,50.62
2022-11-10T12:59:59.863Z,51.28
2022-11-10T13:02:44.644Z,51.54
2022-11-10T13:05:14.682Z,51.78
2022-11-10T13:07:44.376Z,51.81
2022-11-10T13:10:28.829Z,51.84
2022-11-10T13:13:22.623Z,52.91
2022-11-10T13:15:58.513Z,52.59
2022-11-10T13:18:31.354Z,53.06
2022-11-10T13:21:00.221Z,53.41
2022-11-10T13:23:29.907Z,53.91
2022-11-10T13:26:05.993Z,54.47
2022-11-10T13:28:48.222Z,54.74
2022-11-10T13:31:41.606Z,54.91
2022-11-10T13:34:08.407Z,54.29
2022-11-10T13:36:43.463Z,54.17
2022-11-10T13:39:32.942Z,55.72
2022-11-10T13:42:09.817Z,55.07
2022-11-10T13:44:39.131Z,55.07
2022-11-10T13:47:09.318Z,55.15
2022-11-10T13:50:08.564Z,54.92
2022-11-10T13:53:01.844Z,55.09
2022-11-10T13:56:02.274Z,55.34
2022-11-10T13:58:32.701Z,56.01
2022-11-10T14:01:18.074Z,55.95
2022-11-10T14:03:48.007Z,55.64
2022-11-10T14:06:44.543Z,56.07
2022-11-10T14:09:43.501Z,55.77
2022-11-10T14:12:33.519Z,55.86
2022-11-10T14:15:07.836Z,56.66
2022-11-10T14:17:41.213Z,56.58
2022-11-10T14:20:21.378Z,57.31
2022-11-10T14:22:50.298Z,57.71
2022-11-10T14:25:47.184Z,57.16
2022-11-10T14:28:45.151Z,57.86
2022-11-10T14:31:25.220Z,58.25
2022-11-10T14:33:57.579Z,58.24
2022-11-10T14:36:25.466Z,59.09
2022-11-10T14:38:53.246Z,59.87
2022-11-10T14:41:21.411Z,60.10
2022-11-10T14:44:25.054Z,60.66
2022-11-10T14:46:53.245Z,62.56
2022-11-10T14:49:25.276Z,61.68
2022-11-10T14:51:58.029Z,62.63
2022-11-10T14:54:28.648Z,62.96
2022-11-10T14:56:57.147Z,63.67
2022-11-10T14:59:26.175Z,63.74
2022-11-10T15:01:56.732Z,65.15
2022-11-10T15:04:29.486Z,65.69
2022-11-10T15:06:58.079Z,66.14
2022-11-10T15:09:28.921Z,66.89
2022-11-10T15:12:38.167Z,67.50
2022-11-10T15:15:19.265Z,67.67
2022-11-10T15:17:50.210Z,68.19
2022-11-10T15:20:40.066Z,69.04
2022-11-10T15:23:22.991Z,69.38
2022-11-10T15:25:53.164Z,70.68
2022-11-10T15:28:34.259Z,71.72
2022-11-10T15:31:04.784Z,72.29
2022-11-10T15:33:35.220Z,72.72
2022-11-10T15:36:28.153Z,73.15
2022-11-10T15:39:23.951Z,74.17
2022-11-10T15:41:58.439Z,73.96
2022-11-10T15:44:30.000Z,75.09
2022-11-10T15:46:59.372Z,76.44
2022-11-10T15:49:30.741Z,76.04
2022-11-10T15:52:14.169Z,76.36
2022-11-10T15:54:41.500Z,76.39
2022-11-10T15:57:12.261Z,77.99
2022-11-10T15:59:39.311Z,77.56
2022-11-10T16:02:22.490Z,78.49
2022-11-10T16:04:53.399Z,79.16
2022-11-10T16:07:24.370Z,79.61
2022-11-10T16:09:51.266Z,80.10
2022-11-10T16:12:22.955Z,80.57
2022-11-10T16:14:53.366Z,79.48
2022-11-10T16:17:21.168Z,80.07
2022-11-10T16:19:48.424Z,80.12
2022-11-10T16:22:15.450Z,80.46
2022-11-10T16:24:42.643Z,81.15
2022-11-10T16:27:14.567Z,80.93
2022-11-10T16:29:42.994Z,81.47
2022-11-10T16:32:11.826Z,82.01
2022-11-10T16:34:38.949Z,81.92
2022-11-10T16:37:06.162Z,81.75
2022-11-10T16:39:33.674Z,82.47
2022-11-10T16:42:00.705Z,82.73
2022-11-10T16:44:27.751Z,82.42
2022-11-10T16:46:57.459Z,82.43
2022-11-10T16:49:31.778Z,82.64
2022-11-10T16:51:59.554Z,83.64
2022-11-10T16:54:26.588Z,83.34
2022-11-10T16:56:53.522Z,83.55
2022-11-10T16:59:20.672Z,84.28
2022-11-10T17:01:49.159Z,84.45
2022-11-10T17:04:16.324Z,84.70
2022-11-10T17:06:43.624Z,84.89
2022-11-10T17:09:22.274Z,84.87
2022-11-10T17:11:49.427Z,84.95
2022-11-10T17:14:16.913Z,85.08
2022-11-10T17:16:46.798Z,84.86
2022-11-10T17:19:21.254Z,84.94
2022-11-10T17:21:49.983Z,85.13
2022-11-10T17:24:17.585Z,85.25
2022-11-10T17:26:45.166Z,85.56
2022-11-10T17:29:19.627Z,85.59
2022-11-10T17:31:46.737Z,85.86
2022-11-10T17:34:14.026Z,85.94
2022-11-10T17:36:40.966Z,85.64
2022-11-10T17:39:14.734Z,85.92
2022-11-10T17:41:42.236Z,86.05
2022-11-10T17:44:18.414Z,86.03
2022-11-10T17:46:45.423Z,86.17
2022-11-10T17:49:12.510Z,85.77
2022-11-10T17:51:40.869Z,86.08
2022-11-10T17:54:13.845Z,86.36
2022-11-10T17:56:42.525Z,85.93
2022-11-10T17:59:09.800Z,86.56
2022-11-10T18:01:36.976Z,86.84
2022-11-10T18:04:04.161Z,86.71
2022-11-10T18:06:31.677Z,87.13
2022-11-10T18:08:58.576Z,87.35
2022-11-10T18:11:25.856Z,86.92
2022-11-10T18:13:52.730Z,87.36
2022-11-10T18:16:19.728Z,87.53
2022-11-10T18:18:46.633Z,86.91
2022-11-10T18:21:13.778Z,87.35
2022-11-10T18:23:44.519Z,87.36
2022-11-10T18:26:11.957Z,87.15
2022-11-10T18:28:40.146Z,87.38
2022-11-10T18:31:10.979Z,87.95
2022-11-10T18:33:38.191Z,88.03
2022-11-10T18:36:05.411Z,88.25
2022-11-10T18:38:32.666Z,88.45
2022-11-10T18:41:22.643Z,88.35
2022-11-10T18:43:49.538Z,88.01
2022-11-10T18:46:35.304Z,87.43
2022-11-10T18:49:02.591Z,87.91
2022-11-10T18:51:29.645Z,87.22
2022-11-10T18:53:56.644Z,88.13
2022-11-10T18:56:23.780Z,87.94
2022-11-10T18:58:56.411Z,87.51
2022-11-10T19:01:24.231Z,87.17
2022-11-10T19:03:51.673Z,86.75
2022-11-10T19:06:18.917Z,87.27
2022-11-10T19:08:46.266Z,87.68
2022-11-10T19:11:16.527Z,87.69
2022-11-10T19:13:44.166Z,87.88
2022-11-10T19:18:57.950Z,87.32
2022-11-10T19:21:28.539Z,87.45
2022-11-10T19:23:58.801Z,88.23
2022-11-10T19:26:27.285Z,87.56
2022-11-10T19:28:57.269Z,88.49
2022-11-10T19:31:24.959Z,88.48
2022-11-10T19:33:55.057Z,88.51
2022-11-10T19:36:26.657Z,88.56
2022-11-10T19:38:57.595Z,87.79
2022-11-10T19:41:30.294Z,88.36
2022-11-10T19:43:59.773Z,87.48
2022-11-10T19:46:29.137Z,88.55
2022-11-10T19:48:57.419Z,88.24
2022-11-10T19:51:25.709Z,88.46
2022-11-10T19:53:58.865Z,87.88
2022-11-10T19:56:31.651Z,88.87
2022-11-10T19:58:59.667Z,88.18
2022-11-10T20:01:27.219Z,89.36
2022-11-10T20:03:54.953Z,88.21
2022-11-10T20:06:23.348Z,88.14
2022-11-10T20:08:50.627Z,87.96
2022-11-10T20:11:23.863Z,88.63
2022-11-10T20:13:54.949Z,88.01
2022-11-10T20:16:22.608Z,87.90
2022-11-10T20:18:52.595Z,88.45
2022-11-10T20:21:23.803Z,88.36
2022-11-10T20:23:55.826Z,88.89
2022-11-10T20:26:24.004Z,87.30
2022-11-10T20:28:51.080Z,87.89
2022-11-10T20:31:24.576Z,87.88
2022-11-10T20:33:53.386Z,87.51
2022-11-10T20:36:24.120Z,88.47
2022-11-10T20:38:52.002Z,88.79
2022-11-10T20:41:21.440Z,87.94
2022-11-10T20:43:48.427Z,87.67
2022-11-10T20:49:05.243Z,88.76
2022-11-10T20:51:32.100Z,88.14
2022-11-10T20:54:01.010Z,87.55
2022-11-10T20:56:29.925Z,89.20
2022-11-10T20:58:57.956Z,88.21
2022-11-10T21:01:25.607Z,88.15
2022-11-10T21:03:53.564Z,87.35
2022-11-10T21:06:20.855Z,88.21
2022-11-10T21:08:47.937Z,88.18
2022-11-10T21:11:36.167Z,88.90
2022-11-10T21:14:03.267Z,88.19
2022-11-10T21:16:30.226Z,88.42
2022-11-10T21:18:57.287Z,88.51
2022-11-10T21:21:34.841Z,88.60
2022-11-10T21:24:06.241Z,87.51
2022-11-10T21:26:34.852Z,88.33
2022-11-10T21:29:02.851Z,87.73
2022-11-10T21:31:31.671Z,88.00
2022-11-10T21:33:59.246Z,89.12
2022-11-10T21:36:29.998Z,88.68
2022-11-10T21:38:58.302Z,89.23
2022-11-10T21:41:26.432Z,89.12
2022-11-10T21:43:53.725Z,88.47
2022-11-10T21:46:21.084Z,87.90
2022-11-10T21:48:50.089Z,88.38
2022-11-10T21:51:17.957Z,88.72
2022-11-10T21:53:44.823Z,88.40
2022-11-10T21:56:12.704Z,88.85
2022-11-10T21:58:40.308Z,88.17
2022-11-10T22:01:13.260Z,88.22
2022-11-10T22:03:40.821Z,89.06
2022-11-10T22:06:13.523Z,88.37
2022-11-10T22:08:42.119Z,89.21
2022-11-10T22:11:32.972Z,88.95
2022-11-10T22:14:15.690Z,88.98
2022-11-10T22:17:06.945Z,87.51
2022-11-10T22:19:35.577Z,88.71
2022-11-10T22:22:04.230Z,88.08
2022-11-10T22:24:31.713Z,88.04
2022-11-10T22:27:00.944Z,88.22
2022-11-10T22:29:34.361Z,87.63
2022-11-10T22:32:04.678Z,88.45
2022-11-10T22:34:31.740Z,89.10
2022-11-10T22:36:59.802Z,88.20
2022-11-10T22:39:46.765Z,88.13
2022-11-10T22:42:32.454Z,89.20
2022-11-10T22:44:59.572Z,88.07
2022-11-10T22:47:46.843Z,88.90
2022-11-10T22:50:13.875Z,88.23
2022-11-10T22:52:41.141Z,88.82
2022-11-10T22:55:08.336Z,89.20
2022-11-10T22:57:35.221Z,89.83
2022-11-10T23:00:02.368Z,89.74
2022-11-10T23:02:29.481Z,88.79
2022-11-10T23:04:56.517Z,89.33
2022-11-10T23:07:26.457Z,88.83
2022-11-10T23:09:53.563Z,87.96
2022-11-10T23:12:20.519Z,89.62
2022-11-10T23:14:47.427Z,88.34
2022-11-10T23:17:14.362Z,89.53
2022-11-10T23:19:41.541Z,88.75
2022-11-10T23:22:08.470Z,90.27
2022-11-10T23:24:35.853Z,90.08
2022-11-10T23:27:02.747Z,89.01
2022-11-10T23:29:29.715Z,89.71
2022-11-10T23:31:56.673Z,88.52
2022-11-10T23:34:23.535Z,88.36
2022-11-10T23:36:50.568Z,88.74
2022-11-10T23:39:17.462Z,88.63
2022-11-10T23:41:44.431Z,88.78
2022-11-10T23:44:11.462Z,89.34
2022-11-10T23:46:38.569Z,90.19
2022-11-10T23:49:05.561Z,88.91
2022-11-10T23:51:32.547Z,90.06
2022-11-10T23:53:59.620Z,88.88
2022-11-10T23:56:26.535Z,89.69
2022-11-10T23:58:53.586Z,89.34
